Time;durP1;ratioP1;P1;durP2;ratioP2;P2;SDS_P1;SDS_P2;PMS_P1;PMS_P2;Temp;Humidity;BMP_temperature;BMP_pressure;BME280_temperature;BME280_humidity;BME280_pressure;Samples;Min_cycle;Max_cycle;Signal;HPM_P1;HPM_P2
2022/12/14 00:00:07;;;;;;;;;74.00;56.25;;;;;5.64;49.30;98917.50;5005504;28;9628;-78
2022/12/14 00:02:59;;;;;;;;;68.25;53.25;;;;;5.71;48.97;98913.25;4991506;28;8866;-80
2022/12/14 00:05:29;;;;;;;;;68.00;57.00;;;;;5.80;49.00;98927.16;4974512;28;8859;-78
2022/12/14 00:07:57;;;;;;;;;67.50;53.75;;;;;5.88;48.67;98918.56;4976144;28;8875;-80
2022/12/14 00:10:27;;;;;;;;;68.25;55.00;;;;;5.92;48.41;98910.84;4972725;28;8856;-80
2022/12/14 00:12:55;;;;;;;;;69.25;56.75;;;;;6.10;48.02;98896.34;4986543;28;8922;-78
2022/12/14 00:15:26;;;;;;;;;65.00;51.75;;;;;6.13;47.55;98894.63;4970542;28;8942;-81
2022/12/14 00:17:55;;;;;;;;;49.50;45.25;;;;;6.23;46.93;98899.00;4957755;28;8864;-79
2022/12/14 00:20:24;;;;;;;;;53.75;43.75;;;;;6.30;46.54;98899.94;4985207;28;8838;-81
2022/12/14 00:22:52;;;;;;;;;59.50;50.75;;;;;5.95;46.67;98902.22;4994897;28;8870;-79
2022/12/14 00:25:21;;;;;;;;;56.75;49.25;;;;;6.14;46.76;98918.78;5005168;28;9763;-80
2022/12/14 00:27:51;;;;;;;;;54.00;46.00;;;;;6.02;46.55;98922.16;4971930;28;8940;-79
2022/12/14 00:30:20;;;;;;;;;58.25;50.50;;;;;6.07;46.23;98922.19;4989464;28;8839;-81
2022/12/14 00:32:51;;;;;;;;;54.25;47.50;;;;;6.19;46.38;98917.13;4988967;28;8866;-79
2022/12/14 00:35:19;;;;;;;;;66.75;52.50;;;;;6.34;46.14;98906.84;4956747;28;9697;-79
2022/12/14 00:37:48;;;;;;;;;64.00;49.75;;;;;6.39;45.69;98904.28;5005351;28;8878;-78
2022/12/14 00:40:17;;;;;;;;;57.00;47.50;;;;;6.32;46.04;98897.34;5005877;28;8896;-79
2022/12/14 00:42:45;;;;;;;;;56.25;44.50;;;;;6.29;46.12;98895.59;4990698;28;8874;-79
2022/12/14 00:45:14;;;;;;;;;59.75;51.25;;;;;6.46;45.44;98903.47;4977740;28;8846;-80
2022/12/14 00:47:43;;;;;;;;;59.50;47.75;;;;;6.53;45.53;98904.38;5013500;28;8859;-79
2022/12/14 00:50:13;;;;;;;;;49.00;44.50;;;;;6.51;44.77;98901.75;5030653;28;8859;-78
2022/12/14 00:52:41;;;;;;;;;49.50;44.75;;;;;6.66;44.89;98889.75;5029971;28;8990;-79
2022/12/14 00:55:10;;;;;;;;;55.75;45.50;;;;;6.58;44.40;98888.00;5011407;28;8854;-79
2022/12/14 00:57:39;;;;;;;;;55.25;45.75;;;;;6.71;44.56;98885.44;5010196;28;8936;-80
2022/12/14 01:00:09;;;;;;;;;58.50;48.00;;;;;6.67;44.37;98883.72;4994127;28;8869;-79
2022/12/14 01:02:37;;;;;;;;;47.50;41.50;;;;;6.76;43.35;98881.16;5030778;28;9009;-79
2022/12/14 01:05:07;;;;;;;;;46.75;42.00;;;;;6.83;43.55;98878.59;5011698;28;8903;-81
2022/12/14 01:07:37;;;;;;;;;55.75;46.00;;;;;6.69;43.61;98874.22;5028217;28;8997;-80
2022/12/14 01:10:08;;;;;;;;;42.75;36.75;;;;;6.69;43.48;98867.31;4972829;28;8841;-79
2022/12/14 01:12:36;;;;;;;;;50.25;41.00;;;;;6.75;44.01;98867.34;4929752;29;8841;-79
2022/12/14 01:15:06;;;;;;;;;46.50;39.75;;;;;6.76;43.62;98863.03;4915323;29;8841;-79
2022/12/14 01:17:34;;;;;;;;;47.25;42.00;;;;;6.74;43.83;98854.38;4931181;29;8987;-78
2022/12/14 01:20:04;;;;;;;;;48.00;41.25;;;;;6.93;44.00;98856.16;4898520;28;8856;-80
2022/12/14 01:22:32;;;;;;;;;45.00;41.25;;;;;7.08;43.65;98846.69;4914505;29;9725;-80
2022/12/14 01:25:03;;;;;;;;;37.50;35.25;;;;;6.87;42.94;98845.78;4915075;29;8860;-77
2022/12/14 01:27:32;;;;;;;;;45.25;38.25;;;;;6.86;43.67;98838.00;4899886;29;8879;-80
2022/12/14 01:30:00;;;;;;;;;42.25;37.75;;;;;6.90;42.76;98842.31;4943380;28;9838;-79
2022/12/14 01:32:31;;;;;;;;;40.25;39.25;;;;;6.81;43.26;98827.63;4933872;28;8917;-79
2022/12/14 01:35:00;;;;;;;;;23.75;20.75;;;;;6.83;43.20;98826.75;4933636;28;8989;-79
2022/12/14 01:37:28;;;;;;;;;44.50;35.50;;;;;6.65;43.41;98826.69;4912839;29;8901;-80
2022/12/14 01:39:57;;;;;;;;;43.50;37.50;;;;;6.55;43.60;98836.16;4914374;29;8909;-79
2022/12/14 01:42:27;;;;;;;;;38.50;32.75;;;;;6.48;43.76;98816.28;4935919;28;8998;-80
2022/12/14 01:44:58;;;;;;;;;42.75;39.25;;;;;6.41;44.14;98807.63;4971098;28;8957;-78
2022/12/14 01:47:34;;;;;;;;;37.50;34.25;;;;;6.21;44.35;98804.94;4972154;28;8899;-80
2022/12/14 01:50:10;;;;;;;;;38.50;34.25;;;;;6.34;44.21;98798.09;4987814;28;8950;-80
2022/12/14 01:52:42;;;;;;;;;34.25;30.75;;;;;6.34;44.32;98795.50;5006440;28;8865;-79
2022/12/14 01:55:15;;;;;;;;;39.25;34.50;;;;;6.10;44.20;98783.31;5011529;28;8976;-79
2022/12/14 01:57:53;;;;;;;;;38.50;37.25;;;;;5.91;44.78;98781.44;4957581;28;8872;-78
2022/12/14 02:00:23;;;;;;;;;44.25;35.00;;;;;5.83;44.68;98787.44;4949926;28;8872;-78
2022/12/14 02:02:56;;;;;;;;;39.00;33.50;;;;;5.66;44.98;98783.88;4901799;28;9017;-80
2022/12/14 02:05:27;;;;;;;;;37.50;36.00;;;;;5.50;45.54;98785.50;4949472;28;8884;-78
2022/12/14 02:07:56;;;;;;;;;37.00;33.00;;;;;5.51;45.45;98792.41;4935478;28;8876;-79
2022/12/14 02:10:27;;;;;;;;;29.25;26.25;;;;;5.26;46.48;98781.88;4956921;28;8867;-78
2022/12/14 02:13:03;;;;;;;;;32.25;32.25;;;;;5.55;45.89;98776.03;4960631;28;8895;-79
2022/12/14 02:15:34;;;;;;;;;31.50;28.25;;;;;5.58;45.64;98776.06;4947640;28;8851;-79
2022/12/14 02:18:06;;;;;;;;;38.50;34.75;;;;;5.40;45.84;98774.22;4970011;28;8867;-79
2022/12/14 02:20:44;;;;;;;;;40.50;35.50;;;;;5.39;45.67;98776.81;4933339;29;8860;-79
2022/12/14 02:23:45;;;;;;;;;36.50;33.75;;;;;5.41;46.12;98772.50;4933129;29;8896;-79
2022/12/14 02:26:57;;;;;;;;;40.75;36.75;;;;;5.50;45.65;98767.41;4940098;28;8881;-79
2022/12/14 02:29:54;;;;;;;;;31.25;28.50;;;;;5.89;44.68;98765.91;4952542;28;8975;-81
2022/12/14 02:32:59;;;;;;;;;23.25;18.50;;;;;5.99;44.60;98764.28;4876501;29;9041;-81
2022/12/14 02:35:39;;;;;;;;;33.50;31.50;;;;;6.06;44.50;98763.44;4876775;29;8959;-80
2022/12/14 02:38:22;;;;;;;;;38.75;35.75;;;;;6.14;44.53;98751.41;4897600;29;8920;-79
2022/12/14 02:41:01;;;;;;;;;39.50;34.75;;;;;6.14;44.11;98753.13;4914348;29;8868;-78
2022/12/14 02:43:38;;;;;;;;;32.50;29.50;;;;;6.11;44.35;98758.31;4897809;29;8879;-80
2022/12/14 02:46:18;;;;;;;;;25.25;20.75;;;;;6.15;44.09;98755.72;4912737;29;8867;-78
2022/12/14 02:48:54;;;;;;;;;33.25;30.50;;;;;5.97;44.50;98755.63;4913195;29;9006;-79
2022/12/14 02:51:33;;;;;;;;;24.75;21.00;;;;;5.96;44.17;98753.94;4916139;28;8863;-80
2022/12/14 02:54:07;;;;;;;;;36.75;29.75;;;;;5.98;44.33;98752.22;4969507;28;8888;-79
2022/12/14 02:56:43;;;;;;;;;33.50;32.00;;;;;6.15;43.97;98741.94;4968973;28;8985;-80
2022/12/14 02:59:13;;;;;;;;;30.25;26.25;;;;;5.92;44.74;98741.81;4968658;28;8847;-80
2022/12/14 03:01:46;;;;;;;;;39.00;32.50;;;;;5.85;45.13;98741.75;4951376;28;9042;-79
2022/12/14 03:04:16;;;;;;;;;33.00;31.00;;;;;5.99;44.76;98723.75;4951935;28;8884;-78
2022/12/14 03:06:56;;;;;;;;;35.50;34.00;;;;;6.00;45.02;98727.19;4966408;28;8875;-81
2022/12/14 03:09:29;;;;;;;;;31.75;29.50;;;;;5.86;44.84;98727.97;4960900;28;8859;-80
2022/12/14 03:12:02;;;;;;;;;37.25;36.00;;;;;5.99;45.20;98728.94;5027623;28;8877;-79
2022/12/14 03:14:36;;;;;;;;;40.75;35.25;;;;;6.01;44.41;98741.84;5027535;28;9621;-80
2022/12/14 03:17:14;;;;;;;;;41.25;37.25;;;;;6.09;44.89;98747.94;5026523;28;8831;-79
2022/12/14 03:19:53;;;;;;;;;35.75;33.75;;;;;6.33;44.56;98747.19;5027215;28;8867;-78
2022/12/14 03:22:28;;;;;;;;;43.75;39.50;;;;;6.25;44.41;98747.13;5027477;28;8906;-79
2022/12/14 03:25:03;;;;;;;;;34.25;31.75;;;;;6.48;44.29;98748.06;5013793;28;8989;-77
2022/12/14 03:27:35;;;;;;;;;40.75;35.75;;;;;6.55;44.00;98735.16;4990974;28;8880;-78
2022/12/14 03:30:08;;;;;;;;;36.00;33.50;;;;;6.68;43.28;98740.38;5023640;28;8862;-78
2022/12/14 03:32:44;;;;;;;;;41.75;36.75;;;;;6.84;43.11;98739.50;4990876;28;8884;-77
2022/12/14 03:35:17;;;;;;;;;25.00;22.75;;;;;6.88;42.91;98738.69;5008763;28;8870;-78
2022/12/14 03:37:52;;;;;;;;;39.25;34.25;;;;;6.95;42.79;98736.94;5008570;28;8924;-79
2022/12/14 03:40:30;;;;;;;;;46.25;36.75;;;;;7.10;43.20;98734.34;5007400;28;8858;-79
2022/12/14 03:43:06;;;;;;;;;40.50;36.50;;;;;6.75;43.10;98734.34;5019484;28;8905;-78
2022/12/14 03:45:44;;;;;;;;;32.00;28.00;;;;;6.68;42.56;98730.00;5010767;28;8863;-77
2022/12/14 03:48:28;;;;;;;;;30.50;29.50;;;;;6.74;42.93;98723.09;5028596;28;8878;-79
2022/12/14 03:51:09;;;;;;;;;34.00;33.25;;;;;6.90;42.31;98721.41;5007453;28;9673;-80
2022/12/14 03:53:46;;;;;;;;;25.00;23.75;;;;;6.88;41.82;98743.88;4992101;28;8889;-80
2022/12/14 03:56:20;;;;;;;;;36.00;35.75;;;;;6.76;42.65;98741.25;5043297;28;8879;-77
2022/12/14 03:58:59;;;;;;;;;36.50;30.00;;;;;6.77;42.42;98753.34;5026903;28;9632;-77
2022/12/14 04:01:38;;;;;;;;;34.00;32.25;;;;;6.83;41.78;98751.63;5026681;28;8951;-77
2022/12/14 04:04:15;;;;;;;;;35.25;33.00;;;;;6.93;42.22;98755.06;5010090;28;9695;-79
2022/12/14 04:06:51;;;;;;;;;36.50;31.50;;;;;7.03;41.98;98764.63;5011757;28;8867;-79
2022/12/14 04:09:31;;;;;;;;;32.00;30.50;;;;;7.06;41.45;98752.50;5047708;28;8849;-80
2022/12/14 04:20:44;;;;;;;;;43.25;37.25;;;;;6.74;42.32;98753.31;5027319;28;8854;-78
2022/12/14 04:26:03;;;;;;;;;29.25;27.00;;;;;6.63;42.15;98745.53;5026523;28;8850;-78
2022/12/14 04:26:13;;;;;;;;;36.25;29.50;;;;;6.68;42.27;98742.97;4994384;28;8888;-78
2022/12/14 04:31:37;;;;;;;;;34.00;30.00;;;;;6.44;43.26;98734.25;5010791;28;8850;-78
2022/12/14 04:34:10;;;;;;;;;39.50;35.50;;;;;6.17;43.56;98728.13;5027056;28;8846;-79
2022/12/14 04:36:43;;;;;;;;;30.75;30.50;;;;;6.45;42.68;98736.00;5010704;28;9071;-78
2022/12/14 04:39:18;;;;;;;;;33.50;31.75;;;;;6.52;43.19;98736.88;5008974;28;8859;-79
2022/12/14 04:41:50;;;;;;;;;29.75;26.00;;;;;6.40;42.88;98735.97;5013712;28;8866;-78
2022/12/14 04:44:24;;;;;;;;;30.50;27.75;;;;;6.48;42.49;98743.75;5062767;28;8871;-79
2022/12/14 04:46:55;;;;;;;;;26.00;26.00;;;;;6.62;42.35;98734.31;4997690;28;8878;-79
2022/12/14 04:49:29;;;;;;;;;26.75;24.25;;;;;6.72;42.19;98727.41;5042835;28;8858;-77
2022/12/14 04:52:04;;;;;;;;;30.00;27.75;;;;;6.80;42.27;98725.69;5026849;28;8878;-78
2022/12/14 04:54:42;;;;;;;;;29.00;25.75;;;;;6.84;41.73;98721.38;5026112;28;8870;-77
2022/12/14 04:57:16;;;;;;;;;37.75;34.25;;;;;6.78;41.64;98723.97;5010075;28;8878;-79
2022/12/14 04:59:49;;;;;;;;;33.25;31.75;;;;;6.86;42.19;98719.66;5024339;28;8858;-77
2022/12/14 05:02:24;;;;;;;;;32.25;29.00;;;;;6.89;42.07;98719.66;5008989;28;8982;-79
2022/12/14 05:05:04;;;;;;;;;29.50;25.50;;;;;6.53;42.27;98721.34;5029743;28;8871;-77
2022/12/14 05:07:46;;;;;;;;;35.00;28.25;;;;;6.65;41.72;98715.31;5068536;28;8863;-77
2022/12/14 05:10:20;;;;;;;;;29.75;26.25;;;;;6.44;42.63;98711.81;5050992;28;8882;-78
2022/12/14 05:12:57;;;;;;;;;38.00;32.00;;;;;6.51;42.51;98698.88;5005815;28;8870;-76
2022/12/14 05:15:31;;;;;;;;;43.50;37.25;;;;;6.53;42.46;98684.22;5019512;28;8886;-80
2022/12/14 05:18:03;;;;;;;;;39.75;35.00;;;;;6.50;42.31;98685.06;5014432;28;8898;-78
2022/12/14 05:20:32;;;;;;;;;29.75;27.75;;;;;6.48;42.44;98679.00;5035806;28;8847;-79
2022/12/14 05:23:02;;;;;;;;;30.00;26.75;;;;;6.41;42.22;98675.56;5033313;28;8976;-78
2022/12/14 05:25:31;;;;;;;;;28.25;26.00;;;;;6.42;42.70;98673.81;5053744;28;8879;-79
2022/12/14 05:27:59;;;;;;;;;25.60;24.20;;;;;6.36;42.35;98666.91;5069023;28;8856;-78
2022/12/14 05:30:28;;;;;;;;;16.75;15.00;;;;;6.24;42.49;98672.06;5049331;28;8844;-77
2022/12/14 05:32:57;;;;;;;;;24.25;24.00;;;;;6.32;42.37;98666.91;5033346;28;9670;-81
2022/12/14 05:35:26;;;;;;;;;25.50;24.75;;;;;6.29;42.62;98664.31;5032216;28;9001;-78
2022/12/14 05:37:55;;;;;;;;;28.25;25.25;;;;;5.94;43.05;98665.03;5029637;28;8867;-80
2022/12/14 05:40:25;;;;;;;;;32.50;24.50;;;;;5.73;43.58;98674.44;5029408;28;9624;-78
2022/12/14 05:43:03;;;;;;;;;27.75;23.50;;;;;5.83;43.57;98693.44;5018644;28;8984;-79
2022/12/14 05:45:32;;;;;;;;;23.50;22.00;;;;;5.56;44.20;98684.69;5027020;28;8897;-78
2022/12/14 05:48:01;;;;;;;;;25.75;24.75;;;;;5.72;43.89;98685.63;4995066;28;8944;-78
2022/12/14 05:50:30;;;;;;;;;35.00;24.50;;;;;5.60;44.40;98680.41;5027775;28;8988;-78
2022/12/14 05:52:58;;;;;;;;;26.25;23.75;;;;;5.85;43.89;98679.66;5010893;28;8844;-79
2022/12/14 05:55:28;;;;;;;;;24.25;23.25;;;;;5.91;43.79;98680.53;4994665;28;9579;-79
2022/12/14 05:57:57;;;;;;;;;26.50;25.50;;;;;5.93;43.94;98676.22;5010682;28;8872;-78
2022/12/14 06:00:26;;;;;;;;;30.25;26.00;;;;;6.00;43.64;98671.13;5010681;28;8848;-80
2022/12/14 06:02:55;;;;;;;;;25.25;24.50;;;;;5.76;44.35;98668.41;5014902;28;9063;-80
2022/12/14 06:05:24;;;;;;;;;28.50;25.50;;;;;5.87;43.93;98664.13;4994775;28;8970;-80
2022/12/14 06:07:53;;;;;;;;;26.00;25.50;;;;;5.94;43.78;98688.34;5026374;28;8844;-78
2022/12/14 06:10:22;;;;;;;;;29.25;25.25;;;;;6.14;43.81;98685.84;5027008;28;8880;-80
2022/12/14 06:12:52;;;;;;;;;31.00;26.25;;;;;6.16;43.56;98677.22;4994286;28;8983;-81
2022/12/14 06:15:21;;;;;;;;;32.50;25.50;;;;;6.30;43.16;98682.44;5010053;28;8860;-80
2022/12/14 06:17:50;;;;;;;;;27.75;24.00;;;;;6.29;43.14;98685.00;4992608;28;8856;-77
2022/12/14 06:20:19;;;;;;;;;27.50;26.75;;;;;6.46;42.54;98672.13;5006180;28;8853;-79
2022/12/14 06:22:47;;;;;;;;;29.75;28.25;;;;;6.64;42.55;98680.78;5010689;28;9592;-80
2022/12/14 06:25:16;;;;;;;;;27.75;27.75;;;;;6.46;42.24;98672.13;5008815;28;8994;-80
2022/12/14 06:27:45;;;;;;;;;27.75;26.75;;;;;6.57;41.78;98668.66;4994192;28;8990;-79
2022/12/14 06:30:16;;;;;;;;;29.75;28.50;;;;;6.39;42.10;98659.16;5012142;28;8855;-80
2022/12/14 06:32:44;;;;;;;;;18.60;16.40;;;;;6.56;41.65;98668.66;4978664;28;9599;-79
2022/12/14 06:35:13;;;;;;;;;28.80;27.20;;;;;6.66;41.14;98670.41;4998110;28;8856;-77
2022/12/14 06:37:42;;;;;;;;;28.60;25.80;;;;;6.66;41.16;98675.59;4997435;28;8985;-80
2022/12/14 06:40:16;;;;;;;;;19.25;19.00;;;;;6.58;41.28;98667.81;4991597;28;8858;-79
2022/12/14 06:42:47;;;;;;;;;23.00;21.50;;;;;6.55;41.37;98677.31;4975346;28;8874;-81
2022/12/14 06:45:17;;;;;;;;;25.75;20.75;;;;;6.57;41.69;98673.84;4987134;28;8882;-80
2022/12/14 06:47:45;;;;;;;;;27.50;25.75;;;;;6.73;41.07;98679.94;4953893;28;9748;-79
2022/12/14 06:50:15;;;;;;;;;21.25;21.25;;;;;6.59;41.24;98677.31;4953479;28;8861;-79
2022/12/14 06:52:43;;;;;;;;;28.00;24.50;;;;;6.64;41.74;98673.00;4938312;28;8860;-78
2022/12/14 06:55:12;;;;;;;;;25.00;20.50;;;;;6.70;41.71;98672.13;4954283;28;8911;-80
2022/12/14 06:57:40;;;;;;;;;25.50;23.75;;;;;6.46;41.72;98672.13;4970303;28;8904;-79
2022/12/14 07:00:11;;;;;;;;;30.00;28.00;;;;;6.80;41.06;98670.41;4986649;28;8869;-78
2022/12/14 07:02:41;;;;;;;;;35.75;26.50;;;;;6.59;41.16;98664.34;4907355;28;8861;-79
2022/12/14 07:05:10;;;;;;;;;23.25;20.00;;;;;6.37;42.21;98658.28;4970312;28;8934;-79
2022/12/14 07:07:39;;;;;;;;;24.25;21.75;;;;;6.45;42.02;98660.91;4972507;28;9011;-78
2022/12/14 07:10:09;;;;;;;;;23.00;19.00;;;;;6.67;42.06;98666.09;4954684;28;8879;-77
2022/12/14 07:12:38;;;;;;;;;24.25;24.25;;;;;6.52;41.89;98662.63;4967312;28;8863;-79
2022/12/14 07:15:09;;;;;;;;;22.00;21.25;;;;;6.72;41.52;98662.63;4928871;28;8883;-79
2022/12/14 07:17:37;;;;;;;;;21.50;20.00;;;;;6.60;41.75;98670.41;4970441;28;9741;-78
2022/12/14 07:20:10;;;;;;;;;30.00;28.00;;;;;6.81;41.86;98659.19;4938164;28;8869;-80
2022/12/14 07:22:39;;;;;;;;;19.25;16.00;;;;;6.80;41.52;98663.50;4986514;28;8887;-79
2022/12/14 07:25:08;;;;;;;;;21.80;19.60;;;;;6.86;41.78;98660.03;5004259;28;8884;-79
2022/12/14 07:27:37;;;;;;;;;25.75;23.50;;;;;6.96;41.49;98660.94;5033449;28;8910;-82
2022/12/14 07:30:07;;;;;;;;;29.00;25.50;;;;;7.13;41.54;98660.94;5040597;28;10534;-82
2022/12/14 07:32:36;;;;;;;;;25.00;23.00;;;;;7.26;41.62;98667.81;5025046;28;8856;-84
2022/12/14 07:35:06;;;;;;;;;29.75;28.00;;;;;7.40;41.00;98671.22;5048089;28;9615;-84
2022/12/14 07:37:43;;;;;;;;;26.50;24.25;;;;;7.27;41.18;98674.72;4996750;28;8970;-81
2022/12/14 07:40:17;;;;;;;;;16.75;16.75;;;;;7.13;41.50;98681.66;5039565;28;8871;-80
2022/12/14 07:42:49;;;;;;;;;30.00;26.25;;;;;7.35;40.93;98672.09;5045938;28;8988;-80
2022/12/14 07:45:19;;;;;;;;;21.75;20.25;;;;;7.50;40.89;98677.25;5022688;28;8844;-81
2022/12/14 07:47:47;;;;;;;;;26.50;24.75;;;;;7.60;40.75;98672.94;5045894;28;9466;-81
2022/12/14 07:50:16;;;;;;;;;23.00;22.50;;;;;7.51;41.33;98675.56;5063975;28;8848;-79
2022/12/14 07:52:46;;;;;;;;;25.00;23.50;;;;;7.55;41.46;98674.66;5032259;28;8840;-79
2022/12/14 07:55:15;;;;;;;;;27.00;26.25;;;;;7.34;41.81;98675.59;5028829;28;8901;-78
2022/12/14 07:57:44;;;;;;;;;27.25;26.75;;;;;7.57;41.82;98670.34;5029093;28;8850;-79
2022/12/14 08:00:15;;;;;;;;;26.00;24.50;;;;;7.83;41.61;98674.59;5029334;28;8850;-81
2022/12/14 08:02:44;;;;;;;;;23.25;19.25;;;;;7.95;41.13;98674.53;4984682;28;8869;-79
2022/12/14 08:05:13;;;;;;;;;24.00;23.00;;;;;7.85;41.20;98670.25;5025842;28;8984;-79
2022/12/14 08:07:41;;;;;;;;;30.75;25.25;;;;;8.02;41.95;98671.06;5027613;28;8867;-80
2022/12/14 08:10:12;;;;;;;;;28.00;25.25;;;;;7.81;42.65;98674.59;5028019;28;8866;-80
2022/12/14 08:12:40;;;;;;;;;33.75;31.50;;;;;8.02;42.54;98668.44;5027390;28;8990;-80
2022/12/14 08:15:09;;;;;;;;;23.50;20.50;;;;;7.85;43.08;98665.06;5011051;28;8878;-80
2022/12/14 08:17:38;;;;;;;;;30.50;27.25;;;;;7.85;42.69;98660.72;5043472;28;8875;-81
2022/12/14 08:20:07;;;;;;;;;30.75;23.50;;;;;7.99;42.54;98653.72;5010573;28;8848;-80
2022/12/14 08:22:36;;;;;;;;;25.25;24.50;;;;;8.00;42.58;98660.66;5010714;28;8878;-80
2022/12/14 08:25:06;;;;;;;;;28.75;24.75;;;;;7.96;42.43;98661.56;5010493;28;8855;-82
2022/12/14 08:27:36;;;;;;;;;27.50;25.00;;;;;7.96;42.80;98660.69;5010471;28;8902;-80
2022/12/14 08:30:07;;;;;;;;;27.25;24.75;;;;;7.83;43.83;98666.81;5026679;28;8851;-79
2022/12/14 08:32:35;;;;;;;;;27.80;23.80;;;;;7.97;43.52;98662.41;5028005;28;9031;-81
2022/12/14 08:35:04;;;;;;;;;39.50;32.00;;;;;7.93;44.15;98665.91;5041778;28;8859;-82
2022/12/14 08:37:33;;;;;;;;;32.00;28.50;;;;;7.65;43.68;98659.94;5025590;28;8893;-81
2022/12/14 08:40:02;;;;;;;;;30.50;28.75;;;;;8.07;43.63;98655.44;5025200;28;9647;-79
2022/12/14 08:42:31;;;;;;;;;32.25;27.25;;;;;8.15;43.70;98649.34;5024653;28;8860;-79
2022/12/14 08:45:01;;;;;;;;;31.40;23.80;;;;;8.14;43.59;98654.53;5025085;28;8860;-80
2022/12/14 08:47:30;;;;;;;;;26.50;24.75;;;;;7.91;43.56;98650.31;5008719;28;8848;-79
2022/12/14 08:49:59;;;;;;;;;35.25;27.50;;;;;8.10;43.39;98635.50;4992550;28;8881;-80
2022/12/14 08:52:27;;;;;;;;;26.75;24.25;;;;;8.08;43.64;98629.47;5025985;28;8973;-81
2022/12/14 08:54:57;;;;;;;;;26.20;22.40;;;;;8.06;43.15;98631.22;5028171;28;8868;-78
2022/12/14 08:57:26;;;;;;;;;26.00;25.20;;;;;7.98;43.02;98633.84;5009023;28;9656;-81
2022/12/14 08:59:55;;;;;;;;;31.00;24.80;;;;;7.98;43.15;98633.84;5008898;28;8832;-80
2022/12/14 09:02:49;;;;;;;;;30.75;29.50;;;;;8.34;42.06;98634.50;4950342;28;8859;-79
2022/12/14 09:05:19;;;;;;;;;28.25;25.00;;;;;8.36;41.91;98637.09;4937793;28;8879;-79
2022/12/14 09:07:47;;;;;;;;;24.75;22.50;;;;;8.57;41.80;98638.72;4938555;28;8902;-80
2022/12/14 09:10:16;;;;;;;;;27.75;27.00;;;;;8.72;41.36;98635.16;4938781;28;8871;-81
2022/12/14 09:12:44;;;;;;;;;27.00;25.75;;;;;8.62;41.80;98621.38;4955432;28;8990;-81
2022/12/14 09:15:13;;;;;;;;;26.60;25.20;;;;;8.71;41.58;98615.22;4941151;28;8855;-78
2022/12/14 09:17:42;;;;;;;;;21.40;18.60;;;;;8.69;41.75;98622.19;4961026;28;8863;-79
2022/12/14 09:20:13;;;;;;;;;24.20;22.40;;;;;8.66;41.92;98612.69;4988538;28;8898;-79
2022/12/14 09:22:41;;;;;;;;;23.00;20.60;;;;;8.68;41.76;98602.28;5006032;28;8864;-82
2022/12/14 09:25:10;;;;;;;;;26.80;22.40;;;;;8.68;41.79;98603.13;4970087;28;8879;-80
2022/12/14 09:27:38;;;;;;;;;21.80;20.60;;;;;8.58;42.01;98598.88;5001835;28;8879;-80
2022/12/14 09:30:08;;;;;;;;;24.20;22.20;;;;;8.68;41.71;98590.13;5034591;28;8856;-78
2022/12/14 09:32:38;;;;;;;;;23.00;21.20;;;;;8.59;41.69;98601.44;5000508;28;8983;-80
2022/12/14 09:35:08;;;;;;;;;23.20;20.80;;;;;8.79;41.94;98605.66;5008300;28;8852;-80
2022/12/14 09:37:39;;;;;;;;;22.60;19.00;;;;;8.70;41.95;98605.72;4980456;28;8880;-78
2022/12/14 09:40:10;;;;;;;;;26.80;22.00;;;;;8.58;42.14;98593.66;4998919;28;8848;-80
2022/12/14 09:42:53;;;;;;;;;21.00;21.00;;;;;8.56;42.86;98587.63;5027061;28;8856;-81
2022/12/14 09:45:28;;;;;;;;;20.80;19.00;;;;;8.69;41.79;98593.59;4996617;28;9054;-80
2022/12/14 09:48:03;;;;;;;;;27.20;23.80;;;;;8.72;41.96;98578.81;4961407;28;8979;-83
2022/12/14 09:50:33;;;;;;;;;25.40;21.20;;;;;8.79;42.18;98571.84;5025542;28;8864;-81
2022/12/14 09:53:07;;;;;;;;;23.00;22.40;;;;;9.02;42.19;98555.13;4975843;28;9621;-81
2022/12/14 09:55:41;;;;;;;;;20.40;19.60;;;;;9.01;41.85;98550.84;4976504;28;8937;-80
2022/12/14 09:58:18;;;;;;;;;23.80;19.80;;;;;8.92;42.16;98556.97;5008396;28;9684;-80
2022/12/14 10:00:57;;;;;;;;;22.20;19.60;;;;;8.89;41.79;98554.44;5025073;28;9541;-81
2022/12/14 10:03:49;;;;;;;;;24.60;20.60;;;;;8.84;42.01;98546.66;5008459;28;8874;-80
2022/12/14 10:06:32;;;;;;;;;22.80;20.00;;;;;9.17;42.19;98555.84;5008121;28;8884;-80
2022/12/14 10:09:14;;;;;;;;;18.80;18.80;;;;;9.25;41.96;98562.72;5024486;28;8890;-80
2022/12/14 10:11:52;;;;;;;;;30.40;24.20;;;;;9.12;42.25;98556.78;5008313;28;8862;-80
2022/12/14 10:14:26;;;;;;;;;22.80;21.60;;;;;9.05;41.83;98552.53;5024294;28;8858;-80
2022/12/14 10:17:02;;;;;;;;;24.60;19.20;;;;;9.31;41.71;98563.50;5008408;28;8890;-81
2022/12/14 10:19:38;;;;;;;;;26.20;20.00;;;;;9.34;41.80;98579.09;5009326;28;9720;-81
2022/12/14 10:22:13;;;;;;;;;25.00;25.00;;;;;9.47;41.70;98579.81;5008888;28;8866;-81
2022/12/14 10:24:47;;;;;;;;;26.80;24.00;;;;;9.66;41.64;98562.22;4992772;28;8971;-79
2022/12/14 10:27:23;;;;;;;;;21.80;19.60;;;;;9.58;41.43;98553.63;4992261;28;8854;-79
2022/12/14 10:30:01;;;;;;;;;20.40;18.80;;;;;9.60;41.39;98549.28;5008850;28;8912;-79
2022/12/14 10:32:34;;;;;;;;;23.20;19.60;;;;;9.61;41.50;98545.78;5025083;28;8884;-77
2022/12/14 10:35:14;;;;;;;;;26.60;23.80;;;;;9.28;42.25;98544.47;4993387;28;9595;-80
2022/12/14 10:37:48;;;;;;;;;27.60;22.20;;;;;9.23;42.46;98526.31;5027750;28;8854;-80
2022/12/14 10:40:25;;;;;;;;;28.60;25.80;;;;;9.04;43.14;98525.66;5010682;28;8967;-81
2022/12/14 10:43:21;;;;;;;;;27.60;22.80;;;;;9.28;43.17;98524.53;5038754;28;9731;-80
2022/12/14 10:45:58;;;;;;;;;28.00;26.40;;;;;9.10;43.67;98524.72;5011966;28;8876;-81
2022/12/14 10:48:46;;;;;;;;;31.60;24.80;;;;;9.03;43.81;98521.31;5028474;28;9649;-80
2022/12/14 10:51:22;;;;;;;;;33.60;28.00;;;;;8.99;43.86;98527.44;5011861;28;8844;-79
2022/12/14 10:53:55;;;;;;;;;23.80;22.20;;;;;8.84;44.32;98525.00;5027950;28;8946;-79
2022/12/14 10:56:28;;;;;;;;;28.20;22.60;;;;;9.01;44.44;98524.84;5029944;28;9799;-78
2022/12/14 10:59:22;;;;;;;;;25.80;25.80;;;;;9.10;43.97;98509.13;5029958;28;8877;-78
2022/12/14 11:01:54;;;;;;;;;24.40;23.80;;;;;9.21;44.11;98509.00;4991461;28;8866;-78
2022/12/14 11:04:30;;;;;;;;;21.00;19.25;;;;;9.25;43.77;98510.69;4990337;28;8866;-79
2022/12/14 11:07:01;;;;;;;;;26.40;23.80;;;;;9.14;44.38;98511.66;5006130;28;8916;-78
2022/12/14 11:09:30;;;;;;;;;24.00;23.40;;;;;9.25;44.00;98490.75;4989979;28;8858;-77
2022/12/14 11:12:05;;;;;;;;;26.80;24.00;;;;;9.22;44.46;98488.16;4989947;28;8985;-77
2022/12/14 11:14:34;;;;;;;;;27.75;24.25;;;;;9.20;44.90;98478.66;4976518;28;8884;-79
2022/12/14 11:17:03;;;;;;;;;24.00;24.00;;;;;9.31;44.67;98482.84;4992925;28;9164;-80
2022/12/14 11:19:32;;;;;;;;;28.75;25.50;;;;;9.44;44.23;98487.91;5009361;28;8857;-80
2022/12/14 11:22:12;;;;;;;;;28.60;28.20;;;;;9.35;44.63;98481.94;5009437;28;9670;-79
2022/12/14 11:24:50;;;;;;;;;24.20;23.60;;;;;9.43;44.67;98470.56;5009726;28;8869;-78
2022/12/14 11:27:21;;;;;;;;;27.00;25.00;;;;;9.23;45.55;98466.50;4992182;28;9664;-79
2022/12/14 11:29:51;;;;;;;;;31.60;28.40;;;;;9.51;44.82;98471.34;4993402;28;8967;-79
2022/12/14 11:32:23;;;;;;;;;24.20;21.20;;;;;9.52;44.60;98471.28;5006622;28;8881;-79
2022/12/14 11:34:57;;;;;;;;;26.20;23.80;;;;;9.40;45.62;98465.41;5040215;28;8862;-79
2022/12/14 11:37:28;;;;;;;;;20.20;20.00;;;;;9.36;45.65;98449.84;4991108;28;8870;-79
2022/12/14 11:39:59;;;;;;;;;27.00;21.00;;;;;9.47;44.99;98454.03;4991289;28;8846;-78
2022/12/14 11:42:30;;;;;;;;;19.40;16.80;;;;;9.29;45.75;98429.13;5023805;28;8870;-79
2022/12/14 11:45:24;;;;;;;;;11.80;11.80;;;;;9.38;45.92;98428.16;5023826;28;8858;-80
2022/12/14 11:48:10;;;;;;;;;24.80;23.20;;;;;9.40;46.42;98419.44;5025281;28;8859;-79
2022/12/14 11:50:39;;;;;;;;;26.60;24.20;;;;;9.41;46.77;98415.09;5023128;28;8921;-79
2022/12/14 11:53:11;;;;;;;;;24.80;21.80;;;;;9.37;47.21;98401.25;5045690;28;8848;-79
2022/12/14 11:55:44;;;;;;;;;21.80;21.20;;;;;9.27;47.78;98403.13;5012763;28;8843;-79
2022/12/14 11:58:19;;;;;;;;;20.40;19.80;;;;;9.21;48.38;98417.97;5045435;28;8835;-79
2022/12/14 12:00:51;;;;;;;;;21.60;21.00;;;;;9.25;48.40;98428.31;5045690;28;8842;-79
2022/12/14 12:03:25;;;;;;;;;24.00;20.40;;;;;9.33;48.66;98416.03;5012448;28;8844;-79
2022/12/14 12:06:00;;;;;;;;;18.20;16.20;;;;;9.17;48.98;98404.16;5012787;28;8840;-80
2022/12/14 12:08:32;;;;;;;;;23.00;21.00;;;;;9.17;49.24;98399.81;5012353;28;8879;-80
2022/12/14 12:11:05;;;;;;;;;19.80;18.60;;;;;9.24;49.99;98377.16;5045437;28;8852;-78